Time;durP1;ratioP1;P1;durP2;ratioP2;P2;SDS_P1;SDS_P2;PMS_P1;PMS_P2;Temp;Humidity;BMP_temperature;BMP_pressure;BME280_temperature;BME280_humidity;BME280_pressure;Samples;Min_cycle;Max_cycle;Signal;HPM_P1;HPM_P2
2023/02/09 00:13:22;;;;;;;47.95;24.98;;;;;;;-6.01;73.50;102483.09;30745304;28;96996;-69
2023/02/09 00:28:23;;;;;;;38.97;21.98;;;;;;;-6.06;73.94;102471.00;30741827;28;96811;-67
2023/02/09 00:43:23;;;;;;;90.03;45.08;;;;;;;-5.97;74.07;102430.25;30742807;28;96652;-79
2023/02/09 00:58:24;;;;;;;62.03;28.50;;;;;;;-5.93;74.34;102419.84;30744397;28;97662;-75
2023/02/09 01:13:24;;;;;;;70.55;31.25;;;;;;;-6.20;74.01;102430.41;30744909;28;96794;-78
2023/02/09 01:28:24;;;;;;;64.15;32.00;;;;;;;-6.18;74.03;102412.25;30787064;28;97072;-73
2023/02/09 01:43:25;;;;;;;64.70;28.95;;;;;;;-6.44;74.04;102404.59;30857956;28;97884;-74
2023/02/09 01:58:26;;;;;;;64.13;30.23;;;;;;;-6.37;74.66;102377.75;30857067;28;96762;-76
2023/02/09 02:13:26;;;;;;;52.70;25.27;;;;;;;-6.47;75.09;102382.97;30855248;28;97155;-71
2023/02/09 02:28:49;;;;;;;67.30;28.48;;;;;;;-6.52;75.24;102358.81;30853846;28;97585;-74
2023/02/09 02:43:58;;;;;;;21.52;16.40;;;;;;;-6.47;75.08;102346.66;30855189;28;97339;-77
2023/02/09 02:59:03;;;;;;;19.27;13.70;;;;;;;-6.37;75.46;102315.50;30870387;28;96657;-79
2023/02/09 03:14:15;;;;;;;45.83;23.40;;;;;;;-6.45;75.62;102292.22;30871987;28;96740;-75
2023/02/09 03:29:17;;;;;;;43.07;23.73;;;;;;;-6.55;75.84;102290.53;30870272;28;98301;-80
2023/02/09 03:44:27;;;;;;;55.63;28.13;;;;;;;-6.64;76.26;102301.84;30863407;28;96671;-79
2023/02/09 03:59:28;;;;;;;14.63;13.17;;;;;;;-6.64;76.68;102275.91;30866610;28;97560;-72
2023/02/09 04:14:28;;;;;;;33.47;21.10;;;;;;;-6.70;76.60;102266.41;30866192;28;96667;-76
2023/02/09 04:29:28;;;;;;;51.80;27.27;;;;;;;-6.62;76.38;102250.81;30858741;28;97377;-73
2023/02/09 04:44:29;;;;;;;54.07;27.57;;;;;;;-6.67;76.39;102245.69;30740966;28;96637;-75
2023/02/09 04:59:37;;;;;;;46.27;25.83;;;;;;;-6.67;76.35;102237.00;30739626;28;96784;-71
2023/02/09 05:14:38;;;;;;;55.13;29.57;;;;;;;-6.64;76.32;102234.44;30818229;28;97177;-68
2023/02/09 05:29:38;;;;;;;33.67;18.90;;;;;;;-6.67;76.59;102222.34;30852080;28;97370;-68
2023/02/09 05:44:39;;;;;;;38.30;20.57;;;;;;;-6.77;76.13;102201.66;30781049;28;96747;-71
2023/02/09 05:59:39;;;;;;;26.33;15.77;;;;;;;-6.39;77.16;102187.56;30755425;28;97623;-68
2023/02/09 06:14:39;;;;;;;51.33;20.20;;;;;;;-6.06;77.08;102180.38;30791632;28;96780;-66
2023/02/09 06:29:40;;;;;;;23.17;12.27;;;;;;;-5.81;76.51;102180.94;30805351;28;96662;-65
2023/02/09 06:44:40;;;;;;;23.50;10.52;;;;;;;-5.35;76.46;102163.97;30746667;28;97832;-65
2023/02/09 06:59:41;;;;;;;16.65;9.75;;;;;;;-4.67;75.76;102166.47;30820360;28;97570;-72
2023/02/09 07:14:41;;;;;;;18.30;10.18;;;;;;;-3.76;74.87;102133.69;30810971;28;97227;-71
2023/02/09 07:29:41;;;;;;;10.52;6.18;;;;;;;-2.45;72.56;102119.44;30779733;28;97208;-66
2023/02/09 07:44:42;;;;;;;4.90;4.40;;;;;;;-1.38;70.47;102100.84;30807797;28;97253;-65
2023/02/09 07:59:42;;;;;;;11.50;5.65;;;;;;;-0.45;67.62;102098.78;30785589;28;98116;-68
2023/02/09 08:14:49;;;;;;;9.45;6.07;;;;;;;0.47;64.96;102109.50;30844159;28;97221;-68
2023/02/09 08:29:50;;;;;;;12.25;6.13;;;;;;;1.02;62.39;102072.38;30756955;28;97287;-71
2023/02/09 08:44:50;;;;;;;13.80;5.13;;;;;;;1.97;60.05;102064.88;30766131;28;97710;-68
2023/02/09 08:59:51;;;;;;;14.27;6.05;;;;;;;10.44;46.56;102076.16;30789425;28;98272;-72
2023/02/09 09:14:51;;;;;;;9.32;6.43;;;;;;;14.34;34.90;102095.50;30795373;28;97347;-69
2023/02/09 09:29:52;;;;;;;12.07;6.10;;;;;;;15.51;31.13;102083.94;30819822;28;97877;-68
2023/02/09 09:44:53;;;;;;;9.75;5.88;;;;;;;17.11;25.37;102076.19;30780917;28;97081;-67
2023/02/09 09:59:54;;;;;;;9.97;4.97;;;;;;;18.52;21.32;102084.84;30811062;28;96762;-66
2023/02/09 10:14:55;;;;;;;7.53;5.03;;;;;;;18.64;18.94;102071.81;30797834;28;96889;-67
2023/02/09 10:30:19;;;;;;;11.98;4.50;;;;;;;17.86;18.13;102048.16;30853571;28;96734;-67
2023/02/09 10:45:43;;;;;;;8.70;4.47;;;;;;;17.85;17.56;102029.47;30853681;28;96802;-66
2023/02/09 11:01:21;;;;;;;6.70;3.33;;;;;;;18.79;16.86;102005.22;30853556;28;97064;-67
2023/02/09 11:16:35;;;;;;;8.10;5.30;;;;;;;20.24;16.14;101987.00;30861979;28;96796;-63
2023/02/09 11:31:48;;;;;;;13.70;5.57;;;;;;;21.19;15.44;101979.59;30873073;28;96678;-63
2023/02/09 11:46:53;;;;;;;9.10;5.30;;;;;;;21.18;14.57;101967.06;30867460;28;97349;-64
2023/02/09 12:02:12;;;;;;;11.03;5.03;;;;;;;20.93;14.94;101953.97;30757990;28;97297;-64
2023/02/09 12:17:19;;;;;;;9.57;5.30;;;;;;;21.43;14.59;101964.75;30851777;28;97702;-63
2023/02/09 12:32:25;;;;;;;7.63;4.90;;;;;;;22.63;13.60;101907.31;30854461;28;96778;-64
2023/02/09 12:48:00;;;;;;;8.67;4.37;;;;;;;23.51;13.20;101902.59;30822898;28;97104;-65
2023/02/09 13:03:10;;;;;;;9.17;5.00;;;;;;;23.24;13.81;101894.53;30758181;28;96714;-63
2023/02/09 13:18:18;;;;;;;13.13;6.70;;;;;;;21.57;14.55;101878.91;30743832;28;97632;-64
2023/02/09 13:33:37;;;;;;;11.67;7.43;;;;;;;21.35;15.24;101891.72;30743081;28;97670;-62
2023/02/09 13:48:38;;;;;;;11.00;7.00;;;;;;;20.58;15.71;101863.66;30737765;28;97976;-65
2023/02/09 14:03:49;;;;;;;12.05;7.57;;;;;;;19.80;16.90;101834.63;30738726;28;97104;-64
2023/02/09 14:19:26;;;;;;;13.00;7.73;;;;;;;17.46;18.89;101828.19;30772348;28;98052;-65
2023/02/09 14:34:34;;;;;;;16.83;9.80;;;;;;;17.93;19.17;101844.28;30859200;28;97786;-69
2023/02/09 14:49:35;;;;;;;16.00;9.77;;;;;;;15.96;20.80;101833.94;30859834;28;97085;-64
2023/02/09 15:04:35;;;;;;;16.63;9.68;;;;;;;12.72;24.49;101825.16;30857456;28;97149;-65
2023/02/09 15:19:35;;;;;;;18.50;10.23;;;;;;;10.76;27.52;101829.28;30862717;28;97108;-66
2023/02/09 15:34:36;;;;;;;12.50;7.70;;;;;;;8.13;30.63;101824.31;30866790;28;97013;-66
2023/02/09 15:49:36;;;;;;;20.35;10.32;;;;;;;4.28;37.23;101819.63;30867722;28;97040;-66
2023/02/09 16:04:37;;;;;;;17.27;9.18;;;;;;;2.25;42.20;101826.94;30863112;28;97226;-68
2023/02/09 16:19:38;;;;;;;19.38;9.90;;;;;;;1.14;45.18;101806.75;30863088;28;97619;-68
2023/02/09 16:34:38;;;;;;;18.55;9.60;;;;;;;0.44;47.30;101797.59;30850711;28;96983;-68
2023/02/09 16:49:42;;;;;;;11.15;6.90;;;;;;;0.13;49.00;101802.31;30850777;28;97715;-69
2023/02/09 17:04:44;;;;;;;13.23;8.03;;;;;;;-0.20;50.23;101809.78;30847457;28;96690;-69
2023/02/09 17:19:47;;;;;;;18.05;10.48;;;;;;;-0.41;51.29;101793.13;30837194;28;97233;-69
2023/02/09 17:34:47;;;;;;;14.95;7.68;;;;;;;-0.60;51.95;101785.13;30845586;28;96748;-70
2023/02/09 17:49:47;;;;;;;9.70;5.93;;;;;;;-0.77;52.37;101789.25;30844770;28;97311;-69
2023/02/09 18:04:48;;;;;;;18.50;8.70;;;;;;;-0.88;52.53;101775.72;30843477;28;97651;-70
2023/02/09 18:19:48;;;;;;;15.98;8.73;;;;;;;-0.89;53.41;101750.47;30840602;28;97491;-69
2023/02/09 18:34:49;;;;;;;19.48;8.95;;;;;;;-0.95;53.33;101769.03;30760993;28;96804;-69
2023/02/09 18:49:50;;;;;;;10.50;4.65;;;;;;;-1.07;54.15;101739.78;30728948;28;96671;-71
2023/02/09 19:04:50;;;;;;;18.55;9.25;;;;;;;-1.18;54.67;101747.16;30727396;28;96601;-70
2023/02/09 19:19:51;;;;;;;15.82;8.25;;;;;;;-1.40;54.89;101771.47;30728412;28;97327;-70
2023/02/09 19:34:51;;;;;;;17.70;9.27;;;;;;;-1.65;55.00;101778.44;30735988;28;97465;-71
2023/02/09 19:49:53;;;;;;;21.08;11.60;;;;;;;-1.79;55.73;101771.97;30747473;28;96669;-70
2023/02/09 20:04:54;;;;;;;27.27;12.32;;;;;;;-2.06;56.07;101786.78;30746116;28;97244;-70
2023/02/09 20:19:54;;;;;;;21.58;11.15;;;;;;;-1.93;56.66;101795.06;30744627;28;97399;-70
2023/02/09 20:34:55;;;;;;;26.45;12.15;;;;;;;-1.74;56.73;101779.63;30743747;28;97700;-70
2023/02/09 20:49:58;;;;;;;26.58;14.00;;;;;;;-1.68;56.47;101762.88;30740554;28;96814;-69
2023/02/09 21:05:00;;;;;;;23.08;9.45;;;;;;;-1.54;56.78;101774.56;30820398;28;96959;-68
2023/02/09 21:20:01;;;;;;;13.15;7.20;;;;;;;-1.17;56.53;101790.72;30858265;28;97152;-69
2023/02/09 21:35:02;;;;;;;15.70;7.28;;;;;;;-0.98;56.14;101803.16;30794222;28;97098;-68
2023/02/09 21:50:04;;;;;;;16.33;6.80;;;;;;;-0.94;55.90;101796.91;30778829;28;97967;-72
2023/02/09 22:05:05;;;;;;;12.52;6.93;;;;;;;-0.92;55.73;101813.38;30733637;28;96654;-70
2023/02/09 22:20:08;;;;;;;13.25;7.47;;;;;;;-0.89;55.47;101800.19;30733422;28;96780;-69
2023/02/09 22:35:08;;;;;;;13.93;7.68;;;;;;;-0.98;55.10;101811.00;30732788;28;96750;-68
2023/02/09 22:50:09;;;;;;;15.77;8.25;;;;;;;-1.11;55.73;101810.56;30732170;28;97319;-70
2023/02/09 23:05:09;;;;;;;18.00;8.52;;;;;;;-1.32;56.00;101796.50;30853427;28;96727;-70
2023/02/09 23:20:10;;;;;;;18.33;9.98;;;;;;;-1.64;56.81;101801.94;30860763;28;97353;-71
2023/02/09 23:35:10;;;;;;;27.40;16.13;;;;;;;-1.89;56.73;101802.75;30749480;28;96708;-78
2023/02/09 23:50:11;;;;;;;25.98;14.52;;;;;;;-2.08;57.36;101792.06;30748412;28;97449;-71
